createdAt,value
2024-05-09T00:03:54.928Z,1.60
2024-05-09T00:08:57.464Z,1.65
2024-05-09T00:14:00.036Z,1.52
2024-05-09T00:19:02.863Z,1.90
2024-05-09T00:24:06.027Z,2.25
2024-05-09T00:29:08.712Z,1.42
2024-05-09T00:34:13.282Z,1.42
2024-05-09T00:39:15.930Z,1.38
2024-05-09T00:44:18.844Z,1.35
2024-05-09T00:49:22.899Z,1.65
2024-05-09T00:54:26.768Z,2.20
2024-05-09T00:59:30.644Z,1.95
2024-05-09T01:04:33.276Z,2.15
2024-05-09T01:09:35.792Z,2.25
2024-05-09T01:14:38.364Z,2.45
2024-05-09T01:19:41.079Z,2.42
2024-05-09T01:24:43.705Z,2.47
2024-05-09T01:29:46.206Z,2.60
2024-05-09T01:34:48.808Z,2.72
2024-05-09T01:39:52.694Z,2.47
2024-05-09T01:44:55.231Z,2.92
2024-05-09T01:49:57.882Z,3.05
2024-05-09T01:55:03.505Z,2.50
2024-05-09T02:00:10.317Z,2.22
2024-05-09T02:05:14.644Z,2.00
2024-05-09T02:10:23.472Z,2.28
2024-05-09T02:15:32.993Z,2.58
2024-05-09T02:20:38.550Z,3.22
2024-05-09T02:25:44.466Z,3.47
2024-05-09T02:30:47.237Z,4.10
2024-05-09T02:35:49.839Z,3.05
2024-05-09T02:40:52.546Z,4.07
2024-05-09T02:45:55.174Z,4.70
2024-05-09T02:50:57.796Z,4.00
2024-05-09T02:56:00.663Z,3.17
2024-05-09T03:01:03.482Z,4.32
2024-05-09T03:06:06.040Z,4.40
2024-05-09T03:11:08.751Z,4.25
2024-05-09T03:16:11.558Z,4.15
2024-05-09T03:21:14.112Z,3.63
2024-05-09T03:26:18.770Z,3.83
2024-05-09T03:31:21.373Z,2.90
2024-05-09T03:36:23.913Z,3.55
2024-05-09T03:41:26.527Z,1.95
2024-05-09T03:46:29.317Z,1.85
2024-05-09T03:51:31.986Z,1.60
2024-05-09T03:56:34.736Z,1.20
2024-05-09T04:01:37.546Z,1.45
2024-05-09T04:06:40.114Z,0.93
2024-05-09T04:11:42.846Z,1.70
2024-05-09T04:16:45.546Z,1.27
2024-05-09T04:21:48.107Z,1.45
2024-05-09T04:26:50.618Z,1.23
2024-05-09T04:31:53.448Z,1.05
2024-05-09T04:36:56.020Z,1.05
2024-05-09T04:41:58.552Z,1.17
2024-05-09T04:47:01.176Z,0.85
2024-05-09T04:52:03.874Z,1.70
2024-05-09T04:57:06.643Z,1.05
2024-05-09T05:02:09.491Z,1.40
2024-05-09T05:07:12.261Z,0.63
2024-05-09T05:12:33.769Z,0.70
2024-05-09T05:17:36.650Z,1.10
2024-05-09T05:22:40.940Z,0.95
2024-05-09T05:27:43.517Z,0.82
2024-05-09T05:32:48.711Z,1.33
2024-05-09T05:37:51.448Z,1.10
2024-05-09T05:42:54.103Z,0.93
2024-05-09T05:47:57.234Z,0.82
2024-05-09T05:52:59.961Z,1.23
2024-05-09T05:58:02.953Z,2.33
2024-05-09T06:03:06.068Z,2.80
2024-05-09T06:08:09.462Z,1.70
2024-05-09T06:13:14.706Z,1.17
2024-05-09T06:18:18.024Z,2.83
2024-05-09T06:23:20.811Z,1.70
2024-05-09T06:28:23.686Z,1.05
2024-05-09T06:33:26.658Z,1.05
2024-05-09T06:38:29.540Z,1.55
2024-05-09T06:43:32.573Z,1.73
2024-05-09T06:48:35.306Z,1.45
2024-05-09T06:53:40.294Z,1.83
2024-05-09T06:58:43.558Z,1.98
2024-05-09T07:03:46.399Z,1.75
2024-05-09T07:08:51.207Z,1.65
2024-05-09T07:13:54.994Z,1.63
2024-05-09T07:18:57.667Z,1.33
2024-05-09T07:24:00.407Z,1.05
2024-05-09T07:29:02.935Z,0.90
2024-05-09T07:34:05.530Z,1.10
2024-05-09T07:39:08.153Z,1.70
2024-05-09T07:44:10.668Z,1.40
2024-05-09T07:50:55.126Z,0.90
2024-05-09T07:59:41.038Z,2.33
2024-05-09T08:04:44.038Z,1.23
2024-05-09T08:09:46.623Z,1.30
2024-05-09T08:14:49.157Z,1.25
2024-05-09T08:19:51.742Z,0.90
2024-05-09T08:24:54.496Z,0.95
2024-05-09T08:29:57.031Z,1.10
2024-05-09T08:34:59.678Z,1.00
2024-05-09T08:40:02.513Z,0.70
2024-05-09T08:45:06.824Z,1.75
2024-05-09T08:50:23.909Z,0.73
2024-05-09T08:55:34.066Z,1.20
2024-05-09T09:00:39.586Z,0.82
2024-05-09T09:05:53.419Z,1.25
2024-05-09T09:10:59.507Z,1.33
2024-05-09T09:16:03.249Z,1.38
2024-05-09T09:21:10.896Z,1.05
2024-05-09T09:26:17.027Z,1.00
2024-05-09T09:31:20.059Z,0.88
2024-05-09T09:36:22.732Z,0.85
2024-05-09T09:41:30.344Z,1.05
2024-05-09T09:46:33.738Z,0.98
2024-05-09T09:51:37.103Z,0.85
2024-05-09T09:56:40.193Z,1.10
2024-05-09T10:01:46.513Z,0.93
2024-05-09T10:07:00.007Z,0.68
2024-05-09T10:12:12.799Z,0.82
2024-05-09T10:17:17.905Z,0.98
2024-05-09T10:22:31.166Z,0.68
2024-05-09T10:27:34.616Z,0.82
2024-05-09T10:32:41.484Z,0.95
2024-05-09T10:37:46.622Z,0.82
2024-05-09T10:42:49.321Z,1.05
2024-05-09T10:47:52.174Z,1.70
2024-05-09T10:52:54.810Z,1.00
2024-05-09T10:57:58.422Z,0.70
2024-05-09T11:03:01.246Z,0.95
2024-05-09T11:08:04.328Z,1.02
2024-05-09T11:13:07.973Z,0.80
2024-05-09T11:18:24.971Z,1.05
2024-05-09T11:23:30.977Z,1.10
2024-05-09T11:28:33.649Z,0.80
2024-05-09T11:33:40.558Z,0.98
2024-05-09T11:38:43.404Z,0.98
2024-05-09T11:43:46.052Z,0.82
2024-05-09T11:48:48.987Z,1.45
2024-05-09T11:53:51.568Z,1.27
2024-05-09T11:58:54.472Z,0.77
2024-05-09T12:03:57.335Z,0.85
2024-05-09T12:09:00.100Z,0.82
2024-05-09T12:14:02.812Z,1.55
2024-05-09T12:19:05.560Z,0.98
2024-05-09T12:24:08.159Z,1.13
2024-05-09T12:29:10.965Z,0.60
2024-05-09T12:34:16.453Z,0.70
2024-05-09T12:39:19.374Z,1.67
2024-05-09T12:44:21.919Z,1.83
2024-05-09T12:49:24.834Z,0.93
2024-05-09T12:54:27.506Z,1.08
2024-05-09T12:59:30.023Z,0.80
2024-05-09T13:04:32.812Z,1.25
2024-05-09T13:09:35.515Z,1.67
2024-05-09T13:14:38.044Z,2.13
2024-05-09T13:19:40.584Z,2.10
2024-05-09T13:24:43.256Z,1.80
2024-05-09T13:29:45.803Z,1.23
2024-05-09T13:34:48.404Z,1.67
2024-05-09T13:39:51.138Z,1.10
2024-05-09T13:44:56.547Z,0.70
2024-05-09T13:49:59.651Z,0.77
2024-05-09T13:55:02.226Z,0.68
2024-05-09T14:00:07.467Z,0.82
2024-05-09T14:05:15.144Z,0.65
2024-05-09T14:10:23.456Z,1.23
2024-05-09T14:15:31.462Z,1.00
2024-05-09T14:20:34.124Z,1.23
2024-05-09T14:25:39.778Z,1.50
2024-05-09T14:30:44.559Z,1.27
2024-05-09T14:35:47.153Z,1.23
2024-05-09T14:40:51.061Z,1.25
2024-05-09T14:45:54.196Z,1.17
2024-05-09T14:50:56.937Z,0.90
2024-05-09T14:56:00.775Z,1.98
2024-05-09T15:01:03.790Z,1.50
2024-05-09T15:06:06.842Z,1.55
2024-05-09T15:11:09.594Z,1.75
2024-05-09T15:16:12.246Z,2.08
2024-05-09T15:21:14.854Z,1.60
2024-05-09T15:26:17.561Z,1.30
2024-05-09T15:31:20.226Z,1.95
2024-05-09T15:36:22.866Z,0.70
2024-05-09T15:41:25.527Z,0.63
2024-05-09T15:46:28.178Z,1.35
2024-05-09T15:51:30.807Z,1.70
2024-05-09T15:56:33.544Z,1.75
2024-05-09T16:01:36.166Z,2.08
2024-05-09T16:06:38.839Z,2.40
2024-05-09T16:11:41.493Z,2.40
2024-05-09T16:16:44.292Z,1.90
2024-05-09T16:21:47.034Z,2.13
2024-05-09T16:26:49.642Z,1.60
2024-05-09T16:31:52.292Z,1.80
2024-05-09T16:36:54.915Z,2.13
2024-05-09T16:41:57.538Z,2.42
2024-05-09T16:47:01.571Z,2.72
2024-05-09T16:52:04.414Z,2.78
2024-05-09T16:57:07.259Z,2.67
2024-05-09T17:02:10.310Z,2.95
2024-05-09T17:07:13.368Z,3.03
2024-05-09T17:12:16.080Z,3.95
2024-05-09T17:17:21.581Z,3.17
2024-05-09T17:22:24.262Z,3.72
2024-05-09T17:27:26.996Z,3.72
2024-05-09T17:32:29.945Z,3.13
2024-05-09T17:37:32.636Z,3.63
2024-05-09T17:42:35.292Z,3.95
2024-05-09T17:47:37.957Z,3.70
2024-05-09T17:52:40.545Z,4.53
2024-05-09T17:57:43.547Z,5.65
2024-05-09T18:02:46.246Z,5.55
2024-05-09T18:07:48.886Z,4.93
2024-05-09T18:12:51.438Z,6.85
2024-05-09T18:17:54.261Z,7.93
2024-05-09T18:22:56.850Z,8.10
2024-05-09T18:27:59.538Z,7.63
2024-05-09T18:33:02.303Z,9.07
2024-05-09T18:38:05.767Z,9.70
2024-05-09T18:43:09.256Z,10.93
2024-05-09T18:48:13.411Z,10.82
2024-05-09T18:53:16.495Z,10.93
2024-05-09T18:58:19.120Z,11.75
2024-05-09T19:03:22.100Z,12.57
2024-05-09T19:08:24.965Z,13.27
2024-05-09T19:13:27.741Z,13.43
2024-05-09T19:18:31.398Z,11.52
2024-05-09T19:23:38.091Z,11.48
2024-05-09T19:28:43.379Z,10.82
2024-05-09T19:33:45.967Z,11.40
2024-05-09T19:38:49.096Z,9.60
2024-05-09T19:43:51.682Z,9.50
2024-05-09T19:48:54.504Z,9.23
2024-05-09T19:53:57.254Z,9.45
2024-05-09T19:58:59.732Z,8.88
2024-05-09T20:04:02.713Z,8.73
2024-05-09T20:09:06.447Z,9.20
2024-05-09T20:14:09.160Z,10.35
2024-05-09T20:19:11.815Z,10.13
2024-05-09T20:24:14.691Z,11.73
2024-05-09T20:29:17.210Z,12.48
2024-05-09T20:34:19.792Z,11.18
2024-05-09T20:39:26.348Z,11.45
2024-05-09T20:44:28.876Z,12.48
2024-05-09T20:49:31.512Z,11.32
2024-05-09T20:54:34.213Z,12.10
2024-05-09T20:59:38.296Z,11.55
2024-05-09T21:04:42.001Z,10.38
2024-05-09T21:09:44.800Z,8.60
2024-05-09T21:14:47.335Z,8.55
2024-05-09T21:19:51.142Z,10.05
2024-05-09T21:24:53.879Z,10.25
2024-05-09T21:29:56.399Z,9.93
2024-05-09T21:34:58.993Z,9.77
2024-05-09T21:40:06.950Z,9.00
2024-05-09T21:45:11.724Z,7.70
2024-05-09T21:50:22.307Z,4.63
2024-05-09T21:55:30.507Z,6.30
2024-05-09T22:00:37.719Z,6.57
2024-05-09T22:05:44.401Z,6.82
2024-05-09T22:10:51.547Z,6.53
2024-05-09T22:15:54.389Z,6.57
2024-05-09T22:20:56.963Z,6.22
2024-05-09T22:25:59.452Z,5.72
2024-05-09T22:31:02.100Z,5.15
2024-05-09T22:36:07.676Z,4.75
2024-05-09T22:41:10.294Z,4.68
2024-05-09T22:46:13.114Z,4.70
2024-05-09T22:51:16.007Z,5.05
2024-05-09T22:56:27.122Z,5.90
2024-05-09T23:01:29.826Z,6.43
2024-05-09T23:06:32.587Z,5.53
2024-05-09T23:11:35.138Z,5.75
2024-05-09T23:16:38.021Z,5.78
2024-05-09T23:21:41.195Z,5.97
2024-05-09T23:26:44.085Z,5.85
2024-05-09T23:31:46.809Z,6.20
2024-05-09T23:36:49.432Z,3.45
2024-05-09T23:41:51.969Z,3.28
2024-05-09T23:46:54.588Z,3.92
2024-05-09T23:51:57.277Z,3.05
2024-05-09T23:57:00.056Z,2.53
